Time;durP1;ratioP1;P1;durP2;ratioP2;P2;SDS_P1;SDS_P2;PMS_P1;PMS_P2;Temp;Humidity;BMP_temperature;BMP_pressure;BME280_temperature;BME280_humidity;BME280_pressure;Samples;Min_cycle;Max_cycle;Signal;HPM_P1;HPM_P2
2024/03/19 00:00:38;;;;;;;;;;;8.10;99.60;;;;;;5050573;28;20008;-76
2024/03/19 00:03:04;;;;;;;;;;;8.10;99.50;;;;;;5036058;28;19923;-76
2024/03/19 00:05:30;;;;;;;;;;;8.10;99.00;;;;;;5039673;28;19917;-76
2024/03/19 00:07:56;;;;;;;;;;;8.10;99.30;;;;;;5033754;28;20383;-76
2024/03/19 00:10:21;;;;;;;;;;;8.10;99.10;;;;;;5054580;28;19920;-76
2024/03/19 00:12:47;;;;;;;;;;;8.10;99.00;;;;;;5055243;28;19920;-76
2024/03/19 00:15:13;;;;;;;;;;;8.10;99.00;;;;;;5083576;28;19928;-76
2024/03/19 00:17:38;;;;;;;;;;;8.10;99.30;;;;;;5049790;28;20420;-77
2024/03/19 00:20:05;;;;;;;;;;;8.10;99.60;;;;;;5069229;28;20468;-77
2024/03/19 00:22:32;;;;;;;;;;;8.10;99.90;;;;;;5066822;28;19956;-76
2024/03/19 00:24:58;;;;;;;;;;;8.10;99.90;;;;;;5035315;28;19917;-76
2024/03/19 00:27:24;;;;;;;;;;;8.10;99.90;;;;;;5001806;28;20007;-76
2024/03/19 00:29:49;;;;;;;;;;;8.10;99.90;;;;;;5057604;28;20567;-76
2024/03/19 00:32:16;;;;;;;;;;;8.10;99.90;;;;;;5049949;28;20324;-76
2024/03/19 00:34:42;;;;;;;;;;;8.10;99.90;;;;;;5075218;28;20338;-77
2024/03/19 00:37:07;;;;;;;;;;;8.10;99.90;;;;;;5033021;28;19917;-76
2024/03/19 00:39:33;;;;;;;;;;;8.10;99.90;;;;;;5046883;28;19928;-77
2024/03/19 00:42:02;;;;;;;;;;;8.10;99.90;;;;;;5086043;28;19921;-77
2024/03/19 00:44:28;;;;;;;;;;;8.10;99.90;;;;;;5073080;28;20338;-76
2024/03/19 00:47:00;;;;;;;;;;;8.10;99.90;;;;;;5016813;28;20015;-77
2024/03/19 00:49:26;;;;;;;;;;;8.10;99.90;;;;;;5023021;28;19927;-77
2024/03/19 00:51:51;;;;;;;;;;;8.10;99.90;;;;;;5016740;28;19921;-77
2024/03/19 00:54:17;;;;;;;;;;;8.00;99.90;;;;;;5016006;28;19924;-76
2024/03/19 00:56:43;;;;;;;;;;;8.00;99.90;;;;;;5066454;28;19917;-77
2024/03/19 00:59:10;;;;;;;;;;;8.00;99.90;;;;;;5013328;28;19917;-76
2024/03/19 01:01:36;;;;;;;;;;;8.00;99.90;;;;;;5032083;28;19936;-77
2024/03/19 01:04:05;;;;;;;;;;;8.00;99.90;;;;;;5039685;28;19917;-73
2024/03/19 01:06:37;;;;;;;;;;;7.90;99.90;;;;;;5048172;28;20386;-73
2024/03/19 01:09:05;;;;;;;;;;;7.90;99.90;;;;;;5052526;28;19921;-73
2024/03/19 01:11:32;;;;;;;;;;;7.90;99.90;;;;;;5017444;28;19939;-73
2024/03/19 01:13:59;;;;;;;;;;;7.90;99.90;;;;;;5049657;28;19920;-73
2024/03/19 01:16:25;;;;;;;;;;;7.90;99.90;;;;;;5051057;28;20397;-73
2024/03/19 01:18:50;;;;;;;;;;;7.90;99.90;;;;;;5076212;28;19998;-73
2024/03/19 01:21:17;;;;;;;;;;;7.90;99.90;;;;;;5033363;28;19917;-73
2024/03/19 01:23:44;;;;;;;;;;;7.80;99.90;;;;;;5031436;28;20393;-73
2024/03/19 01:26:09;;;;;;;;;;;7.80;99.90;;;;;;5016460;28;20008;-73
2024/03/19 01:28:35;;;;;;;;;;;7.80;99.90;;;;;;5024831;28;20291;-73
2024/03/19 01:31:01;;;;;;;;;;;7.70;99.90;;;;;;5064565;28;19921;-73
2024/03/19 01:33:26;;;;;;;;;;;7.70;99.90;;;;;;5038558;28;19917;-74
2024/03/19 01:35:52;;;;;;;;;;;7.70;99.90;;;;;;5049884;28;19921;-74
2024/03/19 01:38:17;;;;;;;;;;;7.70;99.90;;;;;;5033225;28;19913;-74
2024/03/19 01:40:46;;;;;;;;;;;7.70;99.90;;;;;;5031098;28;19916;-74
2024/03/19 01:43:12;;;;;;;;;;;7.70;99.90;;;;;;5033501;28;19959;-74
2024/03/19 01:45:38;;;;;;;;;;;7.70;99.90;;;;;;5015525;28;19964;-74
2024/03/19 01:48:04;;;;;;;;;;;7.60;99.90;;;;;;5002559;28;19916;-74
2024/03/19 01:50:29;;;;;;;;;;;7.60;99.90;;;;;;5018705;28;20264;-74
2024/03/19 01:52:55;;;;;;;;;;;7.60;99.90;;;;;;5028832;28;19994;-74
2024/03/19 01:55:21;;;;;;;;;;;7.60;99.90;;;;;;5020801;28;19917;-74
2024/03/19 01:57:47;;;;;;;;;;;7.50;99.90;;;;;;5035752;28;19913;-74
2024/03/19 02:00:15;;;;;;;;;;;7.50;99.90;;;;;;5070788;28;19928;-74
2024/03/19 02:02:42;;;;;;;;;;;7.50;99.90;;;;;;5039117;28;19924;-74
2024/03/19 02:05:08;;;;;;;;;;;7.50;99.90;;;;;;5021171;28;19922;-74
2024/03/19 02:07:34;;;;;;;;;;;7.40;99.90;;;;;;5016253;28;20019;-74
2024/03/19 02:09:59;;;;;;;;;;;7.40;99.90;;;;;;5080760;28;19990;-74
2024/03/19 02:12:25;;;;;;;;;;;7.40;99.90;;;;;;5051307;28;20315;-74
2024/03/19 02:14:51;;;;;;;;;;;7.40;99.90;;;;;;5044066;28;19945;-73
2024/03/19 02:17:18;;;;;;;;;;;7.40;99.90;;;;;;5041868;28;19917;-74
2024/03/19 02:19:44;;;;;;;;;;;7.40;99.90;;;;;;5026179;28;19948;-74
2024/03/19 02:22:10;;;;;;;;;;;7.40;99.90;;;;;;5067966;28;20420;-74
2024/03/19 02:24:40;;;;;;;;;;;7.40;99.90;;;;;;5081501;28;19967;-77
2024/03/19 02:27:06;;;;;;;;;;;7.40;99.90;;;;;;5045622;28;20649;-77
2024/03/19 02:29:32;;;;;;;;;;;7.40;99.90;;;;;;5078797;28;19917;-77
2024/03/19 02:31:58;;;;;;;;;;;7.40;99.90;;;;;;5052197;28;19976;-77
2024/03/19 02:34:23;;;;;;;;;;;7.40;99.90;;;;;;5052099;28;20322;-77
2024/03/19 02:36:49;;;;;;;;;;;7.30;99.90;;;;;;5023689;28;19942;-77
2024/03/19 02:39:14;;;;;;;;;;;7.30;99.90;;;;;;5035740;28;20008;-77
2024/03/19 02:41:40;;;;;;;;;;;7.30;99.90;;;;;;5076000;28;19917;-77
2024/03/19 02:44:05;;;;;;;;;;;7.30;99.90;;;;;;5039708;28;19917;-77
2024/03/19 02:46:31;;;;;;;;;;;7.30;99.90;;;;;;5045651;28;19921;-77
2024/03/19 02:48:57;;;;;;;;;;;7.20;99.90;;;;;;5037057;28;20339;-77
2024/03/19 02:51:23;;;;;;;;;;;7.10;99.90;;;;;;5034584;28;19921;-77
2024/03/19 02:53:49;;;;;;;;;;;7.00;99.90;;;;;;5024303;28;20037;-76
2024/03/19 02:56:15;;;;;;;;;;;7.00;99.90;;;;;;5060229;28;20094;-77
2024/03/19 02:58:40;;;;;;;;;;;7.00;99.90;;;;;;5045414;28;19917;-77
2024/03/19 03:01:06;;;;;;;;;;;7.00;99.90;;;;;;5069669;28;19925;-77
2024/03/19 03:03:31;;;;;;;;;;;7.00;99.90;;;;;;5066460;28;19921;-77
2024/03/19 03:05:58;;;;;;;;;;;7.00;99.90;;;;;;5069459;28;19928;-76
2024/03/19 03:08:24;;;;;;;;;;;6.90;99.90;;;;;;5023444;28;19925;-77
2024/03/19 03:10:50;;;;;;;;;;;6.90;99.90;;;;;;5067965;28;20500;-77
2024/03/19 03:13:16;;;;;;;;;;;6.90;99.90;;;;;;5035131;28;19946;-77
2024/03/19 03:15:41;;;;;;;;;;;6.90;99.90;;;;;;5025410;28;19956;-77
2024/03/19 03:18:07;;;;;;;;;;;6.90;99.90;;;;;;5018132;28;20401;-77
2024/03/19 03:20:33;;;;;;;;;;;6.90;99.90;;;;;;5034763;28;19920;-77
2024/03/19 03:22:58;;;;;;;;;;;6.90;99.90;;;;;;5046686;28;19921;-77
2024/03/19 03:25:24;;;;;;;;;;;7.00;99.90;;;;;;5066986;28;19917;-77
2024/03/19 03:27:51;;;;;;;;;;;7.00;99.90;;;;;;5034941;28;19917;-77
2024/03/19 03:30:16;;;;;;;;;;;7.00;99.90;;;;;;5026430;28;20395;-77
2024/03/19 03:32:43;;;;;;;;;;;6.90;99.90;;;;;;5036651;28;20016;-77
2024/03/19 03:35:09;;;;;;;;;;;7.00;99.90;;;;;;5007163;28;19917;-77
2024/03/19 03:37:35;;;;;;;;;;;6.90;99.90;;;;;;5052375;28;19959;-76
2024/03/19 03:40:01;;;;;;;;;;;6.90;99.90;;;;;;5066816;28;19921;-77
2024/03/19 03:42:27;;;;;;;;;;;6.90;99.90;;;;;;5036759;28;19925;-77
2024/03/19 03:44:54;;;;;;;;;;;6.90;99.90;;;;;;5080522;28;19928;-77
2024/03/19 03:47:20;;;;;;;;;;;6.90;99.90;;;;;;5053230;28;19917;-77
2024/03/19 03:49:46;;;;;;;;;;;6.90;99.90;;;;;;5030932;28;20581;-77
2024/03/19 03:52:12;;;;;;;;;;;6.90;99.90;;;;;;5047069;28;19990;-77
2024/03/19 03:54:38;;;;;;;;;;;6.90;99.90;;;;;;5039264;28;20618;-77
2024/03/19 03:57:04;;;;;;;;;;;6.90;99.90;;;;;;5033589;28;19920;-77
2024/03/19 03:59:29;;;;;;;;;;;6.90;99.90;;;;;;5035829;28;19917;-77
2024/03/19 04:01:55;;;;;;;;;;;6.80;99.90;;;;;;5016825;28;20015;-77
2024/03/19 04:04:20;;;;;;;;;;;6.90;99.90;;;;;;5017930;28;19913;-77
2024/03/19 04:06:48;;;;;;;;;;;6.90;99.90;;;;;;5036235;28;19974;-77
2024/03/19 04:09:15;;;;;;;;;;;6.90;99.90;;;;;;5033761;28;20074;-77
2024/03/19 04:11:41;;;;;;;;;;;6.90;99.90;;;;;;5039028;28;19941;-77
2024/03/19 04:14:07;;;;;;;;;;;6.80;99.90;;;;;;5068258;28;19924;-77
2024/03/19 04:16:32;;;;;;;;;;;6.80;99.90;;;;;;5016631;28;20618;-77
2024/03/19 04:18:58;;;;;;;;;;;6.80;99.90;;;;;;5037192;28;20014;-77
2024/03/19 04:21:24;;;;;;;;;;;6.80;99.90;;;;;;5075433;28;20016;-77
2024/03/19 04:23:49;;;;;;;;;;;6.70;99.90;;;;;;5053055;28;19922;-77
2024/03/19 04:26:15;;;;;;;;;;;6.70;99.90;;;;;;5056507;28;20542;-77
2024/03/19 04:28:41;;;;;;;;;;;6.70;99.90;;;;;;5049793;28;20004;-77
2024/03/19 04:31:06;;;;;;;;;;;6.70;99.90;;;;;;5015775;28;19917;-77
2024/03/19 04:33:32;;;;;;;;;;;6.70;99.90;;;;;;5034848;28;20393;-77
2024/03/19 04:35:57;;;;;;;;;;;6.70;99.90;;;;;;5049337;28;20031;-77
2024/03/19 04:38:23;;;;;;;;;;;6.70;99.90;;;;;;5000575;28;19913;-76
2024/03/19 04:40:49;;;;;;;;;;;6.70;99.90;;;;;;5034801;28;19917;-76
2024/03/19 04:43:14;;;;;;;;;;;6.70;99.90;;;;;;5067651;28;20003;-76
2024/03/19 04:45:40;;;;;;;;;;;6.70;99.90;;;;;;5060282;28;19958;-77
2024/03/19 04:48:06;;;;;;;;;;;6.70;99.90;;;;;;5044391;28;19913;-76
2024/03/19 04:50:31;;;;;;;;;;;6.70;99.90;;;;;;5038160;28;19918;-77
2024/03/19 04:52:57;;;;;;;;;;;6.70;99.90;;;;;;5015854;28;19921;-76
2024/03/19 04:55:22;;;;;;;;;;;6.70;99.90;;;;;;5035220;28;19922;-76
2024/03/19 04:57:48;;;;;;;;;;;6.60;99.90;;;;;;5069617;28;20253;-77
2024/03/19 05:00:16;;;;;;;;;;;6.60;99.90;;;;;;5073653;28;19932;-77
2024/03/19 05:02:43;;;;;;;;;;;6.60;99.90;;;;;;5026575;28;20035;-77
2024/03/19 05:05:09;;;;;;;;;;;6.60;99.90;;;;;;5034837;28;19916;-76
2024/03/19 05:07:34;;;;;;;;;;;6.50;99.90;;;;;;5055526;28;19917;-76
2024/03/19 05:10:00;;;;;;;;;;;6.60;99.90;;;;;;5027783;28;19924;-77
2024/03/19 05:12:25;;;;;;;;;;;6.60;99.90;;;;;;5030333;28;19913;-77
2024/03/19 05:14:51;;;;;;;;;;;6.60;99.90;;;;;;5052023;28;20322;-76
2024/03/19 05:17:17;;;;;;;;;;;6.50;99.90;;;;;;5047800;28;19928;-77
2024/03/19 05:19:42;;;;;;;;;;;6.60;99.90;;;;;;5020278;28;19921;-77
2024/03/19 05:22:09;;;;;;;;;;;6.60;99.90;;;;;;5031193;28;19917;-76
2024/03/19 05:24:35;;;;;;;;;;;6.50;99.90;;;;;;5044099;28;20019;-76
2024/03/19 05:27:02;;;;;;;;;;;6.50;99.90;;;;;;5063634;28;20055;-78
2024/03/19 05:29:27;;;;;;;;;;;6.50;99.90;;;;;;5032897;28;19925;-77
2024/03/19 05:31:53;;;;;;;;;;;6.50;99.90;;;;;;5045703;28;19917;-77
2024/03/19 05:34:19;;;;;;;;;;;6.50;99.90;;;;;;5033617;28;19913;-77
2024/03/19 05:36:44;;;;;;;;;;;6.50;99.90;;;;;;5051564;28;19939;-77
2024/03/19 05:39:11;;;;;;;;;;;6.50;99.90;;;;;;5041718;28;19913;-77
2024/03/19 05:41:37;;;;;;;;;;;6.50;99.90;;;;;;5031997;28;19913;-77
2024/03/19 05:44:02;;;;;;;;;;;6.50;99.90;;;;;;5049626;28;19920;-77
2024/03/19 05:46:28;;;;;;;;;;;6.50;99.90;;;;;;5054065;28;19970;-77
2024/03/19 05:48:54;;;;;;;;;;;6.50;99.90;;;;;;5068358;28;19913;-77
2024/03/19 05:51:20;;;;;;;;;;;6.50;99.90;;;;;;5027131;28;20406;-77
2024/03/19 05:53:46;;;;;;;;;;;6.50;99.90;;;;;;5067592;28;19913;-77
2024/03/19 05:56:12;;;;;;;;;;;6.50;99.90;;;;;;5054628;28;20211;-77
2024/03/19 05:58:39;;;;;;;;;;;6.50;99.90;;;;;;5067719;28;19916;-77
2024/03/19 06:01:05;;;;;;;;;;;6.50;99.90;;;;;;5059743;28;20481;-77
2024/03/19 06:03:33;;;;;;;;;;;6.50;99.90;;;;;;5032264;28;19948;-76
2024/03/19 06:05:59;;;;;;;;;;;6.50;99.90;;;;;;5021858;28;19916;-77
2024/03/19 06:08:28;;;;;;;;;;;6.50;99.90;;;;;;5031619;28;20376;-77
2024/03/19 06:10:54;;;;;;;;;;;6.50;99.90;;;;;;5014415;28;20040;-77
2024/03/19 06:13:19;;;;;;;;;;;6.50;99.90;;;;;;5051982;28;20004;-76
2024/03/19 06:15:45;;;;;;;;;;;6.50;99.90;;;;;;5051815;28;19979;-77
2024/03/19 06:18:11;;;;;;;;;;;6.50;99.90;;;;;;5031390;28;19951;-77
2024/03/19 06:20:37;;;;;;;;;;;6.50;99.90;;;;;;5046458;28;19913;-77
2024/03/19 06:23:03;;;;;;;;;;;6.60;99.90;;;;;;5056389;28;19979;-77
2024/03/19 06:25:29;;;;;;;;;;;6.60;99.90;;;;;;5041618;28;19916;-77
2024/03/19 06:27:55;;;;;;;;;;;6.60;99.90;;;;;;5019928;28;20752;-78
2024/03/19 06:30:20;;;;;;;;;;;6.60;99.90;;;;;;5015194;28;19962;-78
2024/03/19 06:32:46;;;;;;;;;;;6.60;99.90;;;;;;5073265;28;20605;-77
2024/03/19 06:35:14;;;;;;;;;;;6.70;99.90;;;;;;5043383;28;20016;-78
2024/03/19 06:37:40;;;;;;;;;;;6.70;99.90;;;;;;5044368;28;20541;-78
2024/03/19 06:40:07;;;;;;;;;;;6.70;99.90;;;;;;5038306;28;20003;-77
2024/03/19 06:42:35;;;;;;;;;;;6.60;99.90;;;;;;5056193;28;19947;-78
2024/03/19 06:45:01;;;;;;;;;;;6.50;99.90;;;;;;5045921;28;19924;-77
2024/03/19 06:47:27;;;;;;;;;;;6.40;99.90;;;;;;5069427;28;20241;-77
2024/03/19 06:49:54;;;;;;;;;;;6.30;99.90;;;;;;5043453;28;19916;-78
2024/03/19 06:52:20;;;;;;;;;;;6.20;99.90;;;;;;5037448;28;19945;-78
2024/03/19 06:54:45;;;;;;;;;;;6.00;99.90;;;;;;5037641;28;20402;-77
2024/03/19 06:57:11;;;;;;;;;;;6.00;99.90;;;;;;5031860;28;19992;-77
2024/03/19 06:59:37;;;;;;;;;;;5.90;99.90;;;;;;5039978;28;19917;-77
2024/03/19 07:02:07;;;;;;;;;;;6.00;99.90;;;;;;5014886;28;19933;-77
2024/03/19 07:04:35;;;;;;;;;;;6.00;99.90;;;;;;5076187;28;20321;-77
2024/03/19 07:07:02;;;;;;;;;;;6.00;99.90;;;;;;5028285;28;19964;-77
2024/03/19 07:09:28;;;;;;;;;;;5.90;99.90;;;;;;5035849;28;19956;-77
2024/03/19 07:11:54;;;;;;;;;;;5.80;99.90;;;;;;5030730;28;19959;-77
2024/03/19 07:14:20;;;;;;;;;;;5.90;99.90;;;;;;5065293;28;19921;-77
2024/03/19 07:16:45;;;;;;;;;;;5.90;99.90;;;;;;5046971;28;20590;-77
2024/03/19 07:19:11;;;;;;;;;;;5.90;99.90;;;;;;5034659;28;19914;-77
2024/03/19 07:21:37;;;;;;;;;;;5.90;99.90;;;;;;5044498;28;19921;-77
2024/03/19 07:24:03;;;;;;;;;;;5.80;99.90;;;;;;5050383;28;20319;-78
2024/03/19 07:26:29;;;;;;;;;;;5.80;99.90;;;;;;5069508;28;19920;-78
2024/03/19 07:28:54;;;;;;;;;;;5.70;99.90;;;;;;5071137;28;20322;-78
2024/03/19 07:31:20;;;;;;;;;;;5.80;99.90;;;;;;5036468;28;20326;-77
2024/03/19 07:33:46;;;;;;;;;;;5.70;99.90;;;;;;5048739;28;19916;-78
2024/03/19 07:36:12;;;;;;;;;;;5.80;99.90;;;;;;5068818;28;19924;-78
2024/03/19 07:38:40;;;;;;;;;;;5.80;99.90;;;;;;5019520;28;19917;-78
2024/03/19 07:41:07;;;;;;;;;;;5.80;99.90;;;;;;5035888;28;19924;-77
2024/03/19 07:43:34;;;;;;;;;;;5.80;99.90;;;;;;5054563;28;19964;-77
2024/03/19 07:46:01;;;;;;;;;;;5.80;99.90;;;;;;5051882;28;19917;-77
2024/03/19 07:48:27;;;;;;;;;;;5.80;99.90;;;;;;5051967;28;19913;-77
2024/03/19 07:50:54;;;;;;;;;;;5.90;99.90;;;;;;5051452;28;20020;-77
2024/03/19 07:53:20;;;;;;;;;;;5.90;99.90;;;;;;5014288;28;19918;-77
2024/03/19 07:55:45;;;;;;;;;;;5.90;99.90;;;;;;5062547;28;19920;-78
2024/03/19 07:58:11;;;;;;;;;;;5.90;99.90;;;;;;5020795;28;19966;-77
2024/03/19 08:00:37;;;;;;;;;;;5.90;99.90;;;;;;5046700;28;19951;-78
2024/03/19 08:03:04;;;;;;;;;;;6.00;99.90;;;;;;5052580;28;19932;-78
2024/03/19 08:05:29;;;;;;;;;;;6.00;99.90;;;;;;5057207;28;19920;-77
2024/03/19 08:07:56;;;;;;;;;;;6.10;99.90;;;;;;5046707;28;19924;-76
2024/03/19 08:10:22;;;;;;;;;;;6.10;99.90;;;;;;5086625;28;19916;-73
2024/03/19 08:12:49;;;;;;;;;;;6.20;99.90;;;;;;5040564;28;20392;-73
2024/03/19 08:15:14;;;;;;;;;;;6.20;99.90;;;;;;5035589;28;19917;-73
2024/03/19 08:17:40;;;;;;;;;;;6.30;99.90;;;;;;5033283;28;19966;-73
2024/03/19 08:20:07;;;;;;;;;;;6.30;99.90;;;;;;5051377;28;20334;-73
2024/03/19 08:22:33;;;;;;;;;;;6.30;99.90;;;;;;5017326;28;19924;-73
2024/03/19 08:24:59;;;;;;;;;;;6.40;99.90;;;;;;5058678;28;19921;-73
2024/03/19 08:27:25;;;;;;;;;;;6.40;99.90;;;;;;5067175;28;20031;-74
2024/03/19 08:29:51;;;;;;;;;;;6.50;99.90;;;;;;5063548;28;20286;-73
2024/03/19 08:32:17;;;;;;;;;;;6.50;99.90;;;;;;5035553;28;19974;-73
2024/03/19 08:34:43;;;;;;;;;;;6.60;99.90;;;;;;5032805;28;19922;-73
2024/03/19 08:37:09;;;;;;;;;;;6.70;99.90;;;;;;5065756;28;19944;-73
2024/03/19 08:39:34;;;;;;;;;;;6.70;99.90;;;;;;5050884;28;19917;-73
2024/03/19 08:42:00;;;;;;;;;;;6.80;99.90;;;;;;5047011;28;20322;-73
2024/03/19 08:44:26;;;;;;;;;;;6.90;99.90;;;;;;5017753;28;19913;-73
2024/03/19 08:46:51;;;;;;;;;;;6.90;99.90;;;;;;5035767;28;20364;-73
2024/03/19 08:49:18;;;;;;;;;;;6.90;99.90;;;;;;5036796;28;20408;-73
2024/03/19 08:51:43;;;;;;;;;;;6.90;99.90;;;;;;5067302;28;20697;-73
2024/03/19 08:54:09;;;;;;;;;;;7.00;99.90;;;;;;5050893;28;19916;-73
2024/03/19 08:56:36;;;;;;;;;;;7.00;99.90;;;;;;4998459;28;19914;-73
2024/03/19 08:59:03;;;;;;;;;;;7.00;99.90;;;;;;5016994;28;20033;-74
2024/03/19 09:01:29;;;;;;;;;;;7.10;99.90;;;;;;5030719;28;20323;-74
2024/03/19 09:03:54;;;;;;;;;;;7.10;99.90;;;;;;5065335;28;19928;-73
2024/03/19 09:06:20;;;;;;;;;;;7.20;99.90;;;;;;5037357;28;19917;-74
2024/03/19 09:08:46;;;;;;;;;;;7.30;99.90;;;;;;5056400;28;19918;-73
2024/03/19 09:11:11;;;;;;;;;;;7.40;99.90;;;;;;5057133;28;20257;-73
2024/03/19 09:13:37;;;;;;;;;;;7.50;99.90;;;;;;5031877;28;20003;-73
2024/03/19 09:16:03;;;;;;;;;;;7.60;99.90;;;;;;4998007;28;19917;-73
2024/03/19 09:18:30;;;;;;;;;;;7.60;99.90;;;;;;5031737;28;19923;-74
2024/03/19 09:20:55;;;;;;;;;;;7.70;99.90;;;;;;5036713;28;20019;-73
2024/03/19 09:23:23;;;;;;;;;;;7.80;99.90;;;;;;5012213;28;20035;-73
2024/03/19 09:25:49;;;;;;;;;;;7.90;99.90;;;;;;5030025;28;20359;-75
2024/03/19 09:28:15;;;;;;;;;;;7.90;99.90;;;;;;5018297;28;19913;-75
2024/03/19 09:30:40;;;;;;;;;;;7.90;99.90;;;;;;5057499;28;20340;-74
2024/03/19 09:33:06;;;;;;;;;;;8.00;99.90;;;;;;5063513;28;19982;-74
2024/03/19 09:35:34;;;;;;;;;;;8.00;99.90;;;;;;5060917;28;19927;-74
2024/03/19 09:38:00;;;;;;;;;;;8.00;99.90;;;;;;5032863;28;19924;-74
2024/03/19 09:40:27;;;;;;;;;;;8.10;99.90;;;;;;5020280;28;19916;-74
2024/03/19 09:42:53;;;;;;;;;;;8.20;99.90;;;;;;5066347;28;19932;-74
2024/03/19 09:45:39;;;;;;;;;;;8.20;99.90;;;;;;5029541;28;19921;-73
2024/03/19 09:48:05;;;;;;;;;;;8.30;99.90;;;;;;5032187;28;20325;-73
2024/03/19 09:50:30;;;;;;;;;;;8.50;99.90;;;;;;5071058;28;19917;-73
2024/03/19 09:52:57;;;;;;;;;;;8.70;99.90;;;;;;5030927;28;19917;-73
2024/03/19 09:55:25;;;;;;;;;;;8.80;99.90;;;;;;5020448;28;20077;-73
2024/03/19 09:57:52;;;;;;;;;;;8.90;99.90;;;;;;5058620;28;19917;-73
2024/03/19 10:00:25;;;;;;;;;;;8.90;99.90;;;;;;5018908;28;19945;-73
2024/03/19 10:02:53;;;;;;;;;;;8.90;99.90;;;;;;5026444;28;20640;-73
2024/03/19 10:05:18;;;;;;;;;;;9.00;99.90;;;;;;5045319;28;20534;-73
2024/03/19 10:07:44;;;;;;;;;;;9.00;99.90;;;;;;5071243;28;19917;-73
2024/03/19 10:10:14;;;;;;;;;;;9.00;99.90;;;;;;5036877;28;19917;-73
2024/03/19 10:12:41;;;;;;;;;;;9.10;99.90;;;;;;5017291;28;19917;-73
2024/03/19 10:15:06;;;;;;;;;;;9.10;99.90;;;;;;5028106;28;20334;-73
2024/03/19 10:17:32;;;;;;;;;;;9.10;99.90;;;;;;5046840;28;19917;-72
2024/03/19 10:19:58;;;;;;;;;;;9.10;99.90;;;;;;5076404;28;19924;-73
2024/03/19 10:22:25;;;;;;;;;;;9.10;99.90;;;;;;5047876;28;19996;-73
2024/03/19 10:24:56;;;;;;;;;;;9.20;99.90;;;;;;5003948;28;19917;-73
2024/03/19 10:27:36;;;;;;;;;;;9.20;99.90;;;;;;5036257;28;20257;-73
2024/03/19 10:30:02;;;;;;;;;;;9.10;99.90;;;;;;5064798;28;19913;-73
2024/03/19 10:32:28;;;;;;;;;;;9.10;99.90;;;;;;5034108;28;19917;-74
2024/03/19 10:34:53;;;;;;;;;;;9.10;99.90;;;;;;5016559;28;19914;-74
2024/03/19 10:37:19;;;;;;;;;;;9.20;99.90;;;;;;5041094;28;19928;-73
2024/03/19 10:39:44;;;;;;;;;;;9.30;99.90;;;;;;5034795;28;19929;-74
2024/03/19 10:42:11;;;;;;;;;;;9.40;99.90;;;;;;5035831;28;19921;-74
2024/03/19 10:44:38;;;;;;;;;;;9.50;99.90;;;;;;5006157;28;19920;-73
2024/03/19 10:47:05;;;;;;;;;;;9.60;99.90;;;;;;5019075;28;19921;-73
2024/03/19 10:49:31;;;;;;;;;;;9.70;99.90;;;;;;5029694;28;19999;-74
2024/03/19 10:51:58;;;;;;;;;;;9.70;99.90;;;;;;5068796;28;19917;-74
2024/03/19 10:54:24;;;;;;;;;;;9.90;99.90;;;;;;5002527;28;20653;-74
2024/03/19 10:56:49;;;;;;;;;;;10.00;99.90;;;;;;5076630;28;19917;-74
2024/03/19 10:59:15;;;;;;;;;;;10.10;99.90;;;;;;5056625;28;19923;-75
2024/03/19 11:01:52;;;;;;;;;;;10.30;99.90;;;;;;5080633;28;19921;-75
2024/03/19 11:04:22;;;;;;;;;;;10.40;99.90;;;;;;5045979;28;19967;-74
2024/03/19 11:06:55;;;;;;;;;;;10.70;99.90;;;;;;5036623;28;19947;-74
2024/03/19 11:09:22;;;;;;;;;;;11.00;99.90;;;;;;5069043;28;20635;-74
2024/03/19 11:11:51;;;;;;;;;;;11.10;99.90;;;;;;5038562;28;19928;-74
2024/03/19 11:14:16;;;;;;;;;;;11.20;99.90;;;;;;5001100;28;19917;-74
2024/03/19 11:16:42;;;;;;;;;;;11.40;99.90;;;;;;5033739;28;19924;-74
2024/03/19 11:19:18;;;;;;;;;;;11.50;99.90;;;;;;5032548;28;20333;-74
2024/03/19 11:21:47;;;;;;;;;;;11.60;99.90;;;;;;5018770;28;19988;-73
2024/03/19 11:24:29;;;;;;;;;;;11.60;99.90;;;;;;5053239;28;20720;-74
2024/03/19 11:26:58;;;;;;;;;;;11.70;99.90;;;;;;5037179;28;19912;-73
2024/03/19 11:29:28;;;;;;;;;;;11.90;99.90;;;;;;5036622;28;19975;-74
2024/03/19 11:31:58;;;;;;;;;;;11.90;99.90;;;;;;5032919;28;20007;-74
2024/03/19 11:34:23;;;;;;;;;;;12.00;99.90;;;;;;5016729;28;20353;-73
2024/03/19 11:36:49;;;;;;;;;;;12.10;99.90;;;;;;5035403;28;19919;-73
2024/03/19 11:39:15;;;;;;;;;;;12.20;99.90;;;;;;5033360;28;20342;-73
2024/03/19 11:41:42;;;;;;;;;;;12.30;99.90;;;;;;5046186;28;20007;-73
2024/03/19 11:44:17;;;;;;;;;;;12.30;99.90;;;;;;5011577;28;19916;-74
2024/03/19 11:46:43;;;;;;;;;;;12.40;99.90;;;;;;5061286;28;19921;-74
2024/03/19 11:49:24;;;;;;;;;;;12.60;99.90;;;;;;5033362;28;19936;-74
2024/03/19 11:51:59;;;;;;;;;;;12.70;99.90;;;;;;5050659;28;19952;-74
2024/03/19 11:54:25;;;;;;;;;;;12.80;99.90;;;;;;5056069;28;19924;-74
2024/03/19 11:56:54;;;;;;;;;;;13.00;99.90;;;;;;5026132;28;19978;-74
2024/03/19 11:59:29;;;;;;;;;;;13.20;99.90;;;;;;5044138;28;19917;-74
2024/03/19 12:01:56;;;;;;;;;;;13.30;99.90;;;;;;5042295;28;19926;-74
2024/03/19 12:04:23;;;;;;;;;;;13.40;99.90;;;;;;5038727;28;20226;-74
2024/03/19 12:06:49;;;;;;;;;;;13.50;99.90;;;;;;5018850;28;19979;-74
2024/03/19 12:09:34;;;;;;;;;;;13.50;99.90;;;;;;5034765;28;19917;-74
2024/03/19 12:12:01;;;;;;;;;;;13.50;99.90;;;;;;5039141;28;20051;-75
2024/03/19 12:14:27;;;;;;;;;;;13.70;99.90;;;;;;5038064;28;20349;-75
2024/03/19 12:16:55;;;;;;;;;;;13.90;99.90;;;;;;5018842;28;19921;-75
2024/03/19 12:19:21;;;;;;;;;;;13.90;99.90;;;;;;5043644;28;19917;-74
2024/03/19 12:21:48;;;;;;;;;;;13.80;99.80;;;;;;5068768;28;19974;-75
2024/03/19 12:24:14;;;;;;;;;;;13.90;99.90;;;;;;5036844;28;19932;-75
2024/03/19 12:26:43;;;;;;;;;;;13.90;99.90;;;;;;5040211;28;19921;-75
2024/03/19 12:29:11;;;;;;;;;;;13.80;99.90;;;;;;5030643;28;19924;-75
2024/03/19 12:31:48;;;;;;;;;;;14.10;99.90;;;;;;5035012;28;19916;-74
2024/03/19 12:34:48;;;;;;;;;;;14.20;99.90;;;;;;5046565;28;19925;-74
2024/03/19 12:37:14;;;;;;;;;;;14.20;99.80;;;;;;5032571;28;19917;-74
2024/03/19 12:39:40;;;;;;;;;;;14.20;99.50;;;;;;5027077;28;19933;-75
2024/03/19 12:42:08;;;;;;;;;;;14.30;99.60;;;;;;5068007;28;19927;-75
2024/03/19 12:44:34;;;;;;;;;;;14.20;99.50;;;;;;5015440;28;20617;-75
2024/03/19 12:47:01;;;;;;;;;;;14.20;99.60;;;;;;5036688;28;19987;-75
2024/03/19 12:49:27;;;;;;;;;;;14.30;99.90;;;;;;5051090;28;19943;-74
2024/03/19 12:51:53;;;;;;;;;;;14.20;99.90;;;;;;4998845;28;20387;-74
2024/03/19 12:54:19;;;;;;;;;;;14.20;99.90;;;;;;4998054;28;19921;-75
2024/03/19 12:56:44;;;;;;;;;;;14.20;99.90;;;;;;5078271;28;19921;-75
2024/03/19 12:59:10;;;;;;;;;;;14.40;99.60;;;;;;5032180;28;19919;-75
2024/03/19 13:01:36;;;;;;;;;;;14.40;99.10;;;;;;5034722;28;19925;-75
2024/03/19 13:04:01;;;;;;;;;;;14.50;99.50;;;;;;5023391;28;19923;-75
2024/03/19 13:06:27;;;;;;;;;;;14.70;99.50;;;;;;5031081;28;19917;-75
2024/03/19 13:08:54;;;;;;;;;;;15.00;99.40;;;;;;5064199;28;19961;-75
2024/03/19 13:11:20;;;;;;;;;;;15.20;98.30;;;;;;5034122;28;20252;-75
2024/03/19 13:13:45;;;;;;;;;;;15.30;98.00;;;;;;5051488;28;19917;-75
2024/03/19 13:16:11;;;;;;;;;;;15.40;98.40;;;;;;5034510;28;19913;-75
2024/03/19 13:18:37;;;;;;;;;;;15.50;98.10;;;;;;5040504;28;19913;-75
2024/03/19 13:21:02;;;;;;;;;;;15.70;97.90;;;;;;5034098;28;20012;-75
2024/03/19 13:23:28;;;;;;;;;;;15.90;97.00;;;;;;5025589;28;19946;-75
2024/03/19 13:25:55;;;;;;;;;;;15.90;96.90;;;;;;5039517;28;20000;-75
2024/03/19 13:28:21;;;;;;;;;;;15.80;96.80;;;;;;5033405;28;20035;-75
2024/03/19 13:30:47;;;;;;;;;;;15.70;97.00;;;;;;5049237;28;20028;-75
2024/03/19 13:33:13;;;;;;;;;;;15.70;97.10;;;;;;5025770;28;19925;-75
2024/03/19 13:35:38;;;;;;;;;;;15.50;97.20;;;;;;5025407;28;19924;-74
2024/03/19 13:38:04;;;;;;;;;;;15.30;97.20;;;;;;5025789;28;19961;-74
2024/03/19 13:40:33;;;;;;;;;;;15.40;97.40;;;;;;5050483;28;19917;-74
2024/03/19 13:43:00;;;;;;;;;;;15.60;96.80;;;;;;5034226;28;20245;-74
2024/03/19 13:45:25;;;;;;;;;;;15.80;96.70;;;;;;5002490;28;19917;-74
2024/03/19 13:47:51;;;;;;;;;;;15.90;96.70;;;;;;5053579;28;19913;-74
2024/03/19 13:50:17;;;;;;;;;;;16.20;96.60;;;;;;5039818;28;20574;-74
2024/03/19 13:52:43;;;;;;;;;;;16.50;95.80;;;;;;5053176;28;19925;-74
2024/03/19 13:55:09;;;;;;;;;;;16.40;95.70;;;;;;5038101;28;20380;-74
2024/03/19 13:57:35;;;;;;;;;;;16.60;96.10;;;;;;5072743;28;20439;-74
2024/03/19 14:00:05;;;;;;;;;;;16.70;95.60;;;;;;5040537;28;19951;-74
2024/03/19 14:02:30;;;;;;;;;;;16.60;95.00;;;;;;5056252;28;20329;-75
2024/03/19 14:04:56;;;;;;;;;;;16.50;95.00;;;;;;5063297;28;19959;-74
2024/03/19 14:07:22;;;;;;;;;;;16.40;95.40;;;;;;5056554;28;19963;-74
2024/03/19 14:09:48;;;;;;;;;;;16.50;94.80;;;;;;5028723;28;19963;-75
2024/03/19 14:12:18;;;;;;;;;;;16.50;94.70;;;;;;5020439;28;19944;-74
2024/03/19 14:14:44;;;;;;;;;;;16.30;94.80;;;;;;5044014;28;19963;-75
2024/03/19 14:17:10;;;;;;;;;;;16.30;95.00;;;;;;4998190;28;19921;-74
2024/03/19 14:19:36;;;;;;;;;;;16.40;95.20;;;;;;5038721;28;20304;-74
2024/03/19 14:22:02;;;;;;;;;;;16.40;94.70;;;;;;5035389;28;19928;-74